Moore, Texas
Current Conditions -  °F | °C
As of 5:15 PM on Sunday 21 Dec 2014 (Local Time) from KCVB Reporting Station
Overcast Overcast  
Wind Chill: 55°   Ceiling: 1300
Heat Index: 55°   Visibility: 7mi
Dew Point: 48°   Wind: 7mph
Humidity: 79%   Direction: 190°S
Pressure: 29.93"   Gusts: NA
Location:  29.06°N, 99.01°W
Report Text: KCVB 212315Z AUTO 19006KT 7SM OVC013 13/09 A2993 RMK AO2 T01260091
Loading
Personal Weather Stations






























Interactive Weather Map New forecast layout! Learn more

10-Day Weather Forecast

Advertisements
Track Severe Weather on mobile